Augusta, Kentucky
Current Conditions -  °F | °C
As of 1:15 AM on Sunday 21 Dec 2014 (Local Time) from KFGX Reporting Station
Haze Haze  
Wind Chill: -1°   Ceiling: 2000
Heat Index: -1°   Visibility: 5mi
Dew Point: -3°   Wind: 0mph
Humidity: 89%   Direction: NA
Pressure: 30.29"   Gusts: NA
Location:  38.77°N, 84.01°W
Report Text: KFGX 210615Z AUTO 00000KT 5SM BR OVC020 M01/M03 A3029 RMK AO2 T10101026
Loading
Personal Weather Stations






























Interactive Weather Map New forecast layout! Learn more

10-Day Weather Forecast

Advertisements
Track Severe Weather on mobile